createdAt,value
2018-12-05T00:00:35.883Z,296.63
2018-12-05T00:03:04.662Z,300.43
2018-12-05T00:05:33.435Z,299.60
2018-12-05T00:08:02.201Z,291.10
2018-12-05T00:10:30.941Z,294.03
2018-12-05T00:12:59.644Z,280.83
2018-12-05T00:15:28.370Z,313.37
2018-12-05T00:17:57.128Z,291.53
2018-12-05T00:20:32.296Z,306.23
2018-12-05T00:23:01.048Z,292.90
2018-12-05T00:25:29.792Z,297.03
2018-12-05T00:27:58.530Z,284.27
2018-12-05T00:30:27.393Z,292.53
2018-12-05T00:32:56.184Z,293.47
2018-12-05T00:35:24.946Z,282.93
2018-12-05T00:37:53.791Z,299.63
2018-12-05T00:40:22.677Z,294.73
2018-12-05T00:42:51.477Z,298.80
2018-12-05T00:45:20.292Z,282.17
2018-12-05T00:47:49.058Z,278.23
2018-12-05T00:50:17.898Z,276.20
2018-12-05T00:52:46.704Z,284.13
2018-12-05T00:55:15.495Z,294.67
2018-12-05T00:57:44.279Z,297.20
2018-12-05T01:00:13.562Z,312.00
2018-12-05T01:02:42.903Z,297.57
2018-12-05T01:05:11.690Z,329.47
2018-12-05T01:07:40.424Z,328.10
2018-12-05T01:10:09.659Z,346.37
2018-12-05T01:12:38.402Z,319.03
2018-12-05T01:15:08.383Z,331.00
2018-12-05T01:17:37.095Z,308.53
2018-12-05T01:20:06.661Z,319.33
2018-12-05T01:22:35.858Z,315.47
2018-12-05T01:25:06.048Z,334.53
2018-12-05T01:27:34.862Z,329.80
2018-12-05T01:30:08.013Z,332.17
2018-12-05T01:32:36.744Z,327.53
2018-12-05T01:35:05.974Z,310.80
2018-12-05T01:37:34.770Z,324.83
2018-12-05T01:40:04.326Z,318.33
2018-12-05T01:42:33.497Z,305.77
2018-12-05T01:45:02.238Z,316.53
2018-12-05T01:47:31.061Z,323.23
2018-12-05T01:50:00.042Z,315.83
2018-12-05T01:52:28.791Z,306.80
2018-12-05T01:54:57.572Z,346.47
2018-12-05T01:57:26.330Z,370.40
2018-12-05T01:59:55.121Z,350.97
2018-12-05T02:02:23.876Z,326.93
2018-12-05T02:04:52.644Z,305.03
2018-12-05T02:07:21.713Z,333.27
2018-12-05T02:09:50.468Z,324.90
2018-12-05T02:12:19.295Z,261.07
2018-12-05T02:14:48.041Z,301.50
2018-12-05T02:17:16.895Z,246.77
2018-12-05T02:19:45.680Z,213.07
2018-12-05T02:22:14.476Z,206.33
2018-12-05T02:24:43.730Z,205.33
2018-12-05T02:27:12.594Z,138.57
2018-12-05T02:29:46.675Z,110.30
2018-12-05T02:32:15.853Z,96.50
2018-12-05T02:34:44.613Z,61.03
2018-12-05T02:37:13.425Z,57.63
2018-12-05T02:39:42.169Z,53.47
2018-12-05T02:42:10.911Z,54.57
2018-12-05T02:44:39.712Z,30.93
2018-12-05T02:47:08.511Z,29.67
2018-12-05T02:49:37.283Z,28.37
2018-12-05T02:52:06.656Z,34.50
2018-12-05T02:54:35.400Z,30.13
2018-12-05T02:57:04.139Z,25.97
2018-12-05T02:59:32.858Z,23.23
2018-12-05T03:02:01.712Z,22.93
2018-12-05T03:04:30.471Z,23.93
2018-12-05T03:06:59.221Z,24.57
2018-12-05T03:09:27.997Z,22.27
2018-12-05T03:11:56.801Z,23.23
2018-12-05T03:14:25.513Z,21.77
2018-12-05T03:16:54.736Z,20.27
2018-12-05T03:19:23.529Z,22.87
2018-12-05T03:21:52.239Z,20.30
2018-12-05T03:24:20.963Z,19.07
2018-12-05T03:26:49.681Z,22.30
2018-12-05T03:29:18.386Z,18.70
2018-12-05T03:31:47.134Z,18.50
2018-12-05T03:34:15.833Z,18.43
2018-12-05T03:36:44.588Z,18.77
2018-12-05T03:39:13.298Z,19.33
2018-12-05T03:41:42.008Z,18.63
2018-12-05T03:44:10.715Z,18.27
2018-12-05T03:46:39.489Z,18.57
2018-12-05T03:49:08.187Z,19.47
2018-12-05T03:51:36.899Z,18.70
2018-12-05T03:54:06.144Z,18.07
2018-12-05T03:56:34.884Z,18.27
2018-12-05T03:59:03.623Z,17.30
2018-12-05T04:01:32.337Z,16.23
2018-12-05T04:04:01.080Z,16.67
2018-12-05T04:06:30.333Z,14.80
2018-12-05T04:08:59.065Z,16.43
2018-12-05T04:11:27.833Z,15.90
2018-12-05T04:13:56.572Z,16.53
2018-12-05T04:16:25.263Z,15.20
2018-12-05T04:18:53.976Z,16.67
2018-12-05T04:21:23.224Z,15.20
2018-12-05T04:23:51.997Z,17.70
2018-12-05T04:26:20.819Z,15.20
2018-12-05T04:28:49.559Z,15.73
2018-12-05T04:31:18.306Z,15.57
2018-12-05T04:33:47.317Z,14.93
2018-12-05T04:36:16.041Z,15.83
2018-12-05T04:38:49.291Z,14.53
2018-12-05T04:41:18.067Z,15.87
2018-12-05T04:43:46.901Z,15.40
2018-12-05T04:46:15.632Z,16.40
2018-12-05T04:48:44.387Z,16.93
2018-12-05T04:51:13.086Z,16.60
2018-12-05T04:53:41.880Z,17.53
2018-12-05T04:56:10.759Z,17.23
2018-12-05T04:58:39.519Z,18.07
2018-12-05T05:01:08.322Z,18.33
2018-12-05T05:03:37.184Z,18.93
2018-12-05T05:06:06.552Z,20.40
2018-12-05T05:08:35.315Z,20.07
2018-12-05T05:11:04.076Z,19.97
2018-12-05T05:13:32.846Z,21.90
2018-12-05T05:16:01.618Z,21.20
2018-12-05T05:18:30.351Z,24.47
2018-12-05T05:20:59.158Z,22.53
2018-12-05T05:23:27.959Z,22.43
2018-12-05T05:25:56.748Z,25.00
2018-12-05T05:28:25.581Z,23.17
2018-12-05T05:30:54.346Z,26.17
2018-12-05T05:33:23.128Z,25.90
2018-12-05T05:35:51.955Z,25.03
2018-12-05T05:38:20.752Z,23.87
2018-12-05T05:40:50.863Z,25.07
2018-12-05T05:43:19.682Z,25.53
2018-12-05T05:45:49.959Z,28.67
2018-12-05T05:48:18.763Z,26.20
2018-12-05T05:50:47.596Z,24.77
2018-12-05T05:53:16.390Z,25.87
2018-12-05T05:55:45.770Z,23.70
2018-12-05T05:58:15.084Z,26.17
2018-12-05T06:00:43.892Z,21.97
2018-12-05T06:03:12.736Z,24.93
2018-12-05T06:05:41.505Z,23.43
2018-12-05T06:08:10.269Z,22.73
2018-12-05T06:10:39.709Z,23.57
2018-12-05T06:13:08.454Z,22.07
2018-12-05T06:15:37.250Z,22.70
2018-12-05T06:20:40.288Z,22.50
2018-12-05T06:23:09.132Z,22.27
2018-12-05T06:25:37.955Z,21.23
2018-12-05T06:28:06.753Z,20.27
2018-12-05T06:30:35.693Z,25.10
2018-12-05T06:33:04.540Z,18.13
2018-12-05T06:35:33.384Z,20.27
2018-12-05T06:38:02.165Z,19.73
2018-12-05T06:40:30.965Z,15.73
2018-12-05T06:42:59.791Z,15.97
2018-12-05T06:45:28.541Z,16.40
2018-12-05T06:47:57.318Z,16.20
2018-12-05T06:50:26.133Z,13.90
2018-12-05T06:52:54.896Z,17.13
2018-12-05T06:55:23.726Z,12.57
2018-12-05T06:57:52.520Z,15.40
2018-12-05T07:00:21.366Z,17.47
2018-12-05T07:02:50.306Z,20.73
2018-12-05T07:05:19.133Z,13.53
2018-12-05T07:07:47.877Z,12.40
2018-12-05T07:10:16.611Z,13.30
2018-12-05T07:12:45.380Z,12.47
2018-12-05T07:15:14.063Z,12.37
2018-12-05T07:17:42.829Z,11.07
2018-12-05T07:20:11.539Z,11.57
2018-12-05T07:22:41.106Z,10.67
2018-12-05T07:25:09.809Z,9.73
2018-12-05T07:27:38.570Z,9.00
2018-12-05T07:30:09.759Z,9.73
2018-12-05T07:32:38.433Z,9.93
2018-12-05T07:35:08.003Z,9.00
2018-12-05T07:37:36.789Z,8.93
2018-12-05T07:40:06.043Z,7.90
2018-12-05T07:42:34.815Z,8.57
2018-12-05T07:45:04.390Z,9.50
2018-12-05T07:47:33.078Z,8.37
2018-12-05T07:50:01.846Z,17.37
2018-12-05T07:52:30.590Z,11.37
2018-12-05T07:54:59.266Z,9.20
2018-12-05T07:57:27.955Z,8.77
2018-12-05T07:59:56.636Z,9.17
2018-12-05T08:02:25.350Z,9.30
2018-12-05T08:04:54.031Z,8.13
2018-12-05T08:07:22.813Z,8.43
2018-12-05T08:09:51.523Z,6.97
2018-12-05T08:12:20.264Z,7.90
2018-12-05T08:14:49.011Z,7.63
2018-12-05T08:17:17.772Z,6.97
2018-12-05T08:19:48.204Z,6.93
2018-12-05T08:22:17.332Z,6.90
2018-12-05T08:24:46.054Z,7.47
2018-12-05T08:27:14.810Z,7.53
2018-12-05T08:29:43.552Z,9.10
2018-12-05T08:32:12.366Z,6.67
2018-12-05T08:34:41.142Z,8.67
2018-12-05T08:37:09.862Z,10.10
2018-12-05T08:39:38.654Z,8.70
2018-12-05T08:42:07.422Z,8.83
2018-12-05T08:44:36.282Z,8.47
2018-12-05T08:47:04.961Z,7.37
2018-12-05T08:49:33.719Z,6.43
2018-12-05T08:52:02.478Z,7.60
2018-12-05T08:54:31.450Z,8.70
2018-12-05T08:57:00.165Z,7.93
2018-12-05T08:59:28.963Z,7.30
2018-12-05T09:01:57.703Z,5.40
2018-12-05T09:04:26.541Z,5.43
2018-12-05T09:06:55.272Z,6.47
2018-12-05T09:09:24.019Z,6.27
2018-12-05T09:11:52.843Z,7.40
2018-12-05T09:14:28.586Z,5.87
2018-12-05T09:16:52.348Z,8.43
2018-12-05T09:19:21.088Z,10.77
2018-12-05T09:21:50.002Z,8.30
2018-12-05T09:24:18.706Z,6.77
2018-12-05T09:26:47.475Z,9.27
2018-12-05T09:29:16.171Z,5.73
2018-12-05T09:31:45.354Z,6.23
2018-12-05T09:34:14.426Z,5.90
2018-12-05T09:36:43.184Z,6.20
2018-12-05T09:39:11.949Z,7.57
2018-12-05T09:41:40.737Z,5.13
2018-12-05T09:44:09.407Z,6.30
2018-12-05T09:46:38.148Z,5.83
2018-12-05T09:49:06.970Z,5.67
2018-12-05T09:51:35.807Z,8.23
2018-12-05T09:54:04.576Z,8.53
2018-12-05T09:56:33.351Z,7.07
2018-12-05T09:59:02.104Z,5.80
2018-12-05T10:01:30.858Z,6.13
2018-12-05T10:03:59.609Z,6.20
2018-12-05T10:06:28.304Z,5.83
2018-12-05T10:08:57.028Z,7.20
2018-12-05T10:11:25.828Z,9.57
2018-12-05T10:13:54.526Z,7.23
2018-12-05T10:16:23.368Z,7.37
2018-12-05T10:18:52.137Z,7.53
2018-12-05T10:21:20.919Z,11.47
2018-12-05T10:23:49.771Z,7.10
2018-12-05T10:26:18.683Z,7.37
2018-12-05T10:28:47.996Z,11.23
2018-12-05T10:31:16.846Z,11.17
2018-12-05T10:33:45.584Z,11.43
2018-12-05T10:36:14.375Z,12.00
2018-12-05T10:38:43.064Z,10.77
2018-12-05T10:41:11.876Z,9.63
2018-12-05T10:43:41.139Z,13.33
2018-12-05T10:46:10.157Z,15.33
2018-12-05T10:48:40.599Z,14.97
2018-12-05T10:51:09.791Z,12.27
2018-12-05T10:53:38.978Z,10.83
2018-12-05T10:56:08.263Z,9.30
2018-12-05T10:58:37.053Z,10.97
2018-12-05T11:01:11.060Z,13.47
2018-12-05T11:03:39.783Z,14.43
2018-12-05T11:06:13.751Z,12.53
2018-12-05T11:09:46.467Z,11.20
2018-12-05T11:12:20.409Z,9.87
2018-12-05T11:14:54.454Z,12.80
2018-12-05T11:17:29.556Z,11.50
2018-12-05T11:20:02.407Z,10.90
2018-12-05T11:23:36.036Z,12.77
2018-12-05T11:26:11.830Z,11.70
2018-12-05T11:28:40.567Z,9.10
2018-12-05T11:31:09.819Z,10.30
2018-12-05T11:33:38.613Z,9.30
2018-12-05T11:36:08.085Z,13.33
2018-12-05T11:38:36.853Z,9.90
2018-12-05T11:41:05.644Z,13.33
2018-12-05T11:43:34.529Z,9.70
2018-12-05T11:46:03.585Z,10.30
2018-12-05T11:48:32.363Z,12.80
2018-12-05T11:51:01.111Z,11.00
2018-12-05T11:53:29.814Z,12.30
2018-12-05T11:55:58.558Z,10.57
2018-12-05T11:58:27.797Z,9.43
2018-12-05T12:00:57.724Z,9.97
2018-12-05T12:03:26.582Z,9.87
2018-12-05T12:05:55.329Z,9.00
2018-12-05T12:08:24.082Z,8.93
2018-12-05T12:10:53.417Z,8.60
2018-12-05T12:13:22.125Z,7.80
2018-12-05T12:15:50.857Z,8.53
2018-12-05T12:18:19.577Z,7.53
2018-12-05T12:20:48.324Z,12.37
2018-12-05T12:23:17.058Z,8.50
2018-12-05T12:25:45.843Z,6.80
2018-12-05T12:28:14.661Z,7.10
2018-12-05T12:30:43.465Z,6.87
2018-12-05T12:33:12.191Z,5.83
2018-12-05T12:35:41.038Z,7.67
2018-12-05T12:38:09.928Z,8.70
2018-12-05T12:40:38.666Z,8.40
2018-12-05T12:43:07.444Z,7.80
2018-12-05T12:45:36.184Z,11.07
2018-12-05T12:48:05.587Z,8.70
2018-12-05T12:50:34.320Z,8.00
2018-12-05T12:53:03.013Z,7.40
2018-12-05T12:55:31.750Z,10.10
2018-12-05T12:58:00.493Z,9.97
2018-12-05T13:00:29.355Z,7.77
2018-12-05T13:02:58.126Z,7.27
2018-12-05T13:05:27.967Z,8.70
2018-12-05T13:07:56.756Z,8.83
2018-12-05T13:10:25.612Z,11.23
2018-12-05T13:12:55.240Z,7.00
2018-12-05T13:15:24.297Z,10.47
2018-12-05T13:17:59.664Z,9.37
2018-12-05T13:20:28.825Z,9.03
2018-12-05T13:22:57.797Z,7.13
2018-12-05T13:25:26.621Z,9.13
2018-12-05T13:27:55.344Z,8.27
2018-12-05T13:30:24.218Z,9.30
2018-12-05T13:32:53.167Z,9.27
2018-12-05T13:35:21.919Z,7.97
2018-12-05T13:37:50.639Z,9.00
2018-12-05T13:40:19.461Z,7.27
2018-12-05T13:42:48.238Z,10.83
2018-12-05T13:45:17.464Z,7.63
2018-12-05T13:47:46.272Z,9.77
2018-12-05T13:50:15.999Z,8.77
2018-12-05T13:52:45.156Z,9.23
2018-12-05T13:55:14.759Z,8.53
2018-12-05T13:57:43.533Z,8.83
2018-12-05T14:00:12.338Z,11.87
2018-12-05T14:02:41.172Z,11.07
2018-12-05T14:05:10.085Z,9.20
2018-12-05T14:07:38.980Z,9.10
2018-12-05T14:10:09.604Z,9.93
2018-12-05T14:12:39.433Z,8.23
2018-12-05T14:15:10.254Z,12.97
2018-12-05T14:17:39.058Z,11.10
2018-12-05T14:20:09.534Z,12.40
2018-12-05T14:22:38.310Z,12.17
2018-12-05T14:25:08.756Z,10.07
2018-12-05T14:27:37.863Z,9.53
2018-12-05T14:30:09.724Z,12.97
2018-12-05T14:32:38.531Z,11.47
2018-12-05T14:35:07.738Z,11.77
2018-12-05T14:37:36.501Z,9.17
2018-12-05T14:40:06.409Z,9.57
2018-12-05T14:42:35.094Z,10.33
2018-12-05T14:45:04.346Z,10.00
2018-12-05T14:47:33.537Z,11.03
2018-12-05T14:50:02.312Z,10.97
2018-12-05T14:52:31.012Z,12.80
2018-12-05T14:54:59.746Z,9.00
2018-12-05T14:57:28.501Z,9.67
2018-12-05T14:59:57.243Z,10.50
2018-12-05T15:02:25.952Z,8.07
2018-12-05T15:04:54.723Z,10.73
2018-12-05T15:07:23.481Z,8.43
2018-12-05T15:09:52.299Z,8.63
2018-12-05T15:12:21.047Z,8.13
2018-12-05T15:14:49.825Z,7.30
2018-12-05T15:17:18.555Z,7.63
2018-12-05T15:19:47.297Z,10.30
2018-12-05T15:22:16.194Z,10.07
2018-12-05T15:24:45.986Z,9.97
2018-12-05T15:27:14.831Z,9.13
2018-12-05T15:29:43.633Z,9.30
2018-12-05T15:32:12.922Z,9.47
2018-12-05T15:34:41.837Z,7.97
2018-12-05T15:37:10.642Z,9.33
2018-12-05T15:39:39.391Z,9.83
2018-12-05T15:42:08.134Z,8.70
2018-12-05T15:44:36.894Z,8.03
2018-12-05T15:47:05.643Z,11.37
2018-12-05T15:49:34.588Z,9.33
2018-12-05T15:52:03.348Z,8.03
2018-12-05T15:54:32.135Z,8.07
2018-12-05T15:57:00.900Z,9.63
2018-12-05T15:59:29.681Z,8.77
2018-12-05T16:01:58.516Z,10.00
2018-12-05T16:04:27.257Z,8.60
2018-12-05T16:06:56.014Z,11.73
2018-12-05T16:09:24.741Z,7.97
2018-12-05T16:11:53.541Z,9.30
2018-12-05T16:14:22.256Z,8.47
2018-12-05T16:16:51.083Z,7.43
2018-12-05T16:19:19.804Z,8.30
2018-12-05T16:21:48.491Z,9.33
2018-12-05T16:24:17.198Z,9.23
2018-12-05T16:26:45.991Z,8.43
2018-12-05T16:29:14.769Z,9.97
2018-12-05T16:31:43.503Z,9.17
2018-12-05T16:34:12.313Z,9.60
2018-12-05T16:36:41.055Z,9.03
2018-12-05T16:39:10.415Z,9.67
2018-12-05T16:41:39.471Z,12.97
2018-12-05T16:44:12.879Z,10.73
2018-12-05T16:46:39.061Z,9.90
2018-12-05T16:49:07.900Z,10.53
2018-12-05T16:51:36.829Z,10.60
2018-12-05T16:54:06.230Z,11.10
2018-12-05T16:56:34.989Z,8.50
2018-12-05T16:59:04.266Z,8.47
2018-12-05T17:01:33.079Z,9.87
2018-12-05T17:04:02.278Z,9.83
2018-12-05T17:06:31.059Z,12.70
2018-12-05T17:09:01.404Z,11.03
2018-12-05T17:11:30.871Z,9.87
2018-12-05T17:13:59.575Z,10.37
2018-12-05T17:16:28.343Z,15.53
2018-12-05T17:18:57.064Z,10.30
2018-12-05T17:21:25.789Z,8.70
2018-12-05T17:24:03.423Z,10.87
2018-12-05T17:26:32.388Z,12.20
2018-12-05T17:29:01.156Z,12.00
2018-12-05T17:31:29.907Z,11.97
2018-12-05T17:33:58.692Z,9.93
2018-12-05T17:36:27.530Z,10.83
2018-12-05T17:38:56.329Z,15.70
2018-12-05T17:41:25.110Z,10.47
2018-12-05T17:43:53.881Z,10.00
2018-12-05T17:46:22.678Z,7.57
2018-12-05T17:48:51.460Z,10.83
2018-12-05T17:51:20.254Z,10.97
2018-12-05T17:53:49.022Z,9.10
2018-12-05T17:56:18.241Z,8.80
2018-12-05T17:58:47.039Z,12.10
2018-12-05T18:01:15.881Z,9.33
2018-12-05T18:03:44.596Z,8.43
2018-12-05T18:06:13.353Z,13.20
2018-12-05T18:08:42.155Z,9.10
2018-12-05T18:11:10.969Z,10.40
2018-12-05T18:13:39.754Z,11.47
2018-12-05T18:16:08.632Z,9.37
2018-12-05T18:18:37.463Z,9.60
2018-12-05T18:21:06.195Z,10.37
2018-12-05T18:23:34.932Z,9.93
2018-12-05T18:26:03.757Z,12.20
2018-12-05T18:28:32.531Z,12.27
2018-12-05T18:31:01.477Z,10.57
2018-12-05T18:33:30.670Z,10.57
2018-12-05T18:35:59.403Z,9.87
2018-12-05T18:38:29.133Z,11.73
2018-12-05T18:40:57.937Z,8.30
2018-12-05T18:43:26.878Z,12.73
2018-12-05T18:45:55.898Z,9.30
2018-12-05T18:48:25.175Z,10.33
2018-12-05T18:50:53.895Z,10.27
2018-12-05T18:53:22.812Z,10.73
2018-12-05T18:55:51.570Z,10.70
2018-12-05T18:58:20.369Z,12.03
2018-12-05T19:00:50.326Z,11.37
2018-12-05T19:03:19.067Z,12.27
2018-12-05T19:05:47.878Z,11.27
2018-12-05T19:08:17.114Z,10.60
2018-12-05T19:10:46.268Z,13.60
2018-12-05T19:13:15.482Z,12.10
2018-12-05T19:15:45.328Z,13.03
2018-12-05T19:18:14.707Z,9.53
2018-12-05T19:20:43.911Z,12.83
2018-12-05T19:23:13.310Z,11.07
2018-12-05T19:25:42.783Z,12.33
2018-12-05T19:28:12.284Z,10.80
2018-12-05T19:30:41.859Z,11.03
2018-12-05T19:33:11.108Z,12.70
2018-12-05T19:35:40.399Z,13.27
2018-12-05T19:38:09.139Z,15.27
2018-12-05T19:40:38.082Z,10.63
2018-12-05T19:43:07.012Z,11.50
2018-12-05T19:45:36.009Z,10.50
2018-12-05T19:48:04.776Z,9.00
2018-12-05T19:50:33.600Z,11.47
2018-12-05T19:53:02.464Z,10.30
2018-12-05T19:55:31.374Z,11.30
2018-12-05T19:58:00.164Z,10.30
2018-12-05T20:00:29.481Z,11.43
2018-12-05T20:02:58.300Z,9.40
2018-12-05T20:05:28.077Z,11.60
2018-12-05T20:07:58.108Z,12.00
2018-12-05T20:10:28.500Z,10.53
2018-12-05T20:12:57.424Z,12.57
2018-12-05T20:15:26.498Z,10.07
2018-12-05T20:17:56.160Z,13.43
2018-12-05T20:20:32.457Z,9.80
2018-12-05T20:23:03.721Z,9.87
2018-12-05T20:25:32.682Z,10.70
2018-12-05T20:28:01.599Z,11.07
2018-12-05T20:30:34.258Z,11.43
2018-12-05T20:33:03.134Z,11.17
2018-12-05T20:35:31.976Z,10.63
2018-12-05T20:38:00.874Z,14.40
2018-12-05T20:40:29.644Z,12.83
2018-12-05T20:42:58.540Z,10.17
2018-12-05T20:45:27.341Z,12.33
2018-12-05T20:47:56.708Z,10.50
2018-12-05T20:50:27.491Z,11.93
2018-12-05T20:52:57.217Z,13.80
2018-12-05T20:55:26.128Z,13.37
2018-12-05T20:57:54.955Z,13.00
2018-12-05T21:00:23.785Z,14.17
2018-12-05T21:02:52.992Z,10.97
2018-12-05T21:05:21.881Z,11.03
2018-12-05T21:07:50.823Z,10.93
2018-12-05T21:10:19.638Z,11.47
2018-12-05T21:12:48.415Z,11.37
2018-12-05T21:15:17.226Z,12.50
2018-12-05T21:17:45.945Z,11.27
2018-12-05T21:20:14.683Z,12.33
2018-12-05T21:22:47.117Z,14.13
2018-12-05T21:25:14.232Z,12.17
2018-12-05T21:27:43.025Z,11.33
2018-12-05T21:30:13.542Z,12.73
2018-12-05T21:32:42.257Z,14.53
2018-12-05T21:35:10.980Z,12.90
2018-12-05T21:37:39.783Z,12.23
2018-12-05T21:40:09.195Z,12.97
2018-12-05T21:42:38.002Z,15.13
2018-12-05T21:45:07.658Z,14.03
2018-12-05T21:47:36.484Z,17.27
2018-12-05T21:50:05.970Z,18.23
2018-12-05T21:52:34.726Z,11.43
2018-12-05T21:55:04.017Z,14.33
2018-12-05T21:57:32.775Z,13.20
2018-12-05T22:00:01.584Z,17.10
2018-12-05T22:02:30.340Z,14.87
2018-12-05T22:04:59.354Z,14.20
2018-12-05T22:07:28.102Z,14.60
2018-12-05T22:09:56.942Z,13.30
2018-12-05T22:12:25.707Z,13.13
2018-12-05T22:14:54.466Z,13.63
2018-12-05T22:17:23.247Z,11.33
2018-12-05T22:19:52.167Z,12.40
2018-12-05T22:22:21.057Z,12.10
2018-12-05T22:24:49.848Z,11.60
2018-12-05T22:27:18.610Z,13.97
2018-12-05T22:29:47.352Z,12.83
2018-12-05T22:32:16.478Z,15.27
2018-12-05T22:34:45.274Z,14.17
2018-12-05T22:37:14.041Z,16.10
2018-12-05T22:39:42.832Z,14.93
2018-12-05T22:42:11.591Z,13.67
2018-12-05T22:44:40.406Z,13.20
2018-12-05T22:47:09.151Z,12.83
2018-12-05T22:49:37.861Z,15.30
2018-12-05T22:52:06.539Z,13.73
2018-12-05T22:54:35.314Z,15.43
2018-12-05T22:57:12.671Z,14.67
2018-12-05T22:59:41.855Z,14.33
2018-12-05T23:02:11.216Z,11.70
2018-12-05T23:04:39.912Z,14.03
2018-12-05T23:07:08.664Z,12.50
2018-12-05T23:09:37.434Z,12.83
2018-12-05T23:12:06.205Z,14.50
2018-12-05T23:14:35.017Z,16.10
2018-12-05T23:17:04.153Z,14.87
2018-12-05T23:19:32.904Z,11.67
2018-12-05T23:22:01.719Z,12.20
2018-12-05T23:24:30.503Z,11.23
2018-12-05T23:26:59.290Z,14.40
2018-12-05T23:29:28.569Z,14.67
2018-12-05T23:31:57.339Z,14.03
2018-12-05T23:34:26.029Z,13.43
2018-12-05T23:36:54.757Z,16.03
2018-12-05T23:39:23.467Z,12.50
2018-12-05T23:41:52.211Z,12.70
2018-12-05T23:44:20.923Z,13.20
2018-12-05T23:46:49.639Z,13.83
2018-12-05T23:49:18.372Z,15.70
2018-12-05T23:51:56.021Z,12.50
2018-12-05T23:54:25.032Z,13.13
2018-12-05T23:56:53.812Z,12.57
2018-12-05T23:59:22.514Z,13.13
